Time;durP1;ratioP1;P1;durP2;ratioP2;P2;SDS_P1;SDS_P2;PMS_P1;PMS_P2;Temp;Humidity;BMP_temperature;BMP_pressure;BME280_temperature;BME280_humidity;BME280_pressure;Samples;Min_cycle;Max_cycle;Signal;HPM_P1;HPM_P2
2022/07/09 00:00:39;;;;;;;3.95;2.47;;;18.80;99.90;;;19.14;83.62;102184.81;5206867;28;20045;-72
2022/07/09 00:03:12;;;;;;;3.97;2.53;;;18.70;99.90;;;19.11;84.37;102190.03;5206246;28;20100;-73
2022/07/09 00:05:44;;;;;;;2.95;2.30;;;18.70;99.90;;;19.06;84.57;102185.50;5206885;28;20038;-73
2022/07/09 00:08:16;;;;;;;3.40;2.30;;;18.60;99.90;;;19.01;84.92;102187.16;5205606;28;20406;-72
2022/07/09 00:10:48;;;;;;;3.78;2.28;;;18.60;99.90;;;18.96;85.38;102187.94;5206806;28;20046;-72
2022/07/09 00:13:21;;;;;;;3.20;2.38;;;18.50;99.90;;;18.92;85.74;102188.75;5206890;28;20124;-73
2022/07/09 00:15:53;;;;;;;4.20;2.58;;;18.50;99.90;;;18.87;86.27;102184.22;5222129;28;20148;-73
2022/07/09 00:18:26;;;;;;;3.72;2.40;;;18.50;99.90;;;18.84;86.45;102192.03;5206650;28;20072;-72
2022/07/09 00:20:59;;;;;;;3.13;2.40;;;18.40;99.90;;;18.82;86.85;102191.13;5206526;28;20053;-72
2022/07/09 00:23:31;;;;;;;3.00;2.60;;;18.40;99.90;;;18.80;86.93;102187.56;5206684;28;20203;-73
2022/07/09 00:26:03;;;;;;;4.40;2.33;;;18.40;99.90;;;18.78;86.97;102181.34;5206374;28;20048;-72
2022/07/09 00:28:35;;;;;;;3.80;2.20;;;18.30;99.90;;;18.76;87.19;102183.94;5230811;23;20041;-82
2022/07/09 00:31:07;;;;;;;4.90;2.50;;;18.30;99.90;;;18.74;87.37;102177.75;5223199;28;20055;-81
2022/07/09 00:33:41;;;;;;;3.78;2.30;;;18.30;99.90;;;18.70;87.44;102175.88;5233457;28;20054;-80
2022/07/09 00:36:13;;;;;;;4.18;2.25;;;18.30;99.90;;;18.65;87.67;102177.50;5232667;28;20041;-80
2022/07/09 00:38:45;;;;;;;4.10;2.63;;;18.20;99.90;;;18.60;87.82;102180.03;5237631;28;20045;-79
2022/07/09 00:41:17;;;;;;;4.22;2.60;;;18.20;99.90;;;18.56;87.97;102174.63;5236549;28;20053;-81
2022/07/09 00:43:50;;;;;;;4.40;2.67;;;18.20;99.90;;;18.51;88.19;102169.22;5236840;28;20041;-81
2022/07/09 00:46:22;;;;;;;3.05;2.20;;;18.10;99.90;;;18.48;88.47;102171.81;5237366;28;20045;-81
2022/07/09 00:48:56;;;;;;;2.78;2.15;;;18.00;99.90;;;18.44;88.57;102172.59;5236337;28;20116;-81
2022/07/09 00:51:28;;;;;;;4.32;2.22;;;18.00;99.90;;;18.41;88.92;102169.88;5233875;28;20121;-81
2022/07/09 00:54:01;;;;;;;3.95;2.25;;;18.00;99.90;;;18.37;89.01;102165.38;5232225;28;20040;-81
2022/07/09 00:56:34;;;;;;;2.70;2.13;;;18.00;99.90;;;18.33;89.38;102158.25;5216690;28;20181;-80
2022/07/09 00:59:10;;;;;;;3.83;2.70;;;17.90;99.90;;;18.31;89.60;102159.94;5217339;28;20052;-81
2022/07/09 01:01:42;;;;;;;3.83;2.45;;;17.90;99.90;;;18.30;89.60;102147.59;5216302;28;20120;-82
2022/07/09 01:04:16;;;;;;;3.88;2.25;;;17.90;99.90;;;18.29;89.69;102153.75;5216469;28;20395;-80
2022/07/09 01:06:48;;;;;;;3.50;2.20;;;17.90;99.90;;;18.26;89.80;102154.56;5216061;28;20045;-82
2022/07/09 01:09:21;;;;;;;3.15;2.10;;;17.90;99.90;;;18.22;89.95;102159.72;5211766;28;20041;-83
2022/07/09 01:11:53;;;;;;;2.42;2.03;;;17.80;99.90;;;18.23;90.17;102149.19;5212786;28;20050;-80
2022/07/09 01:14:25;;;;;;;3.33;2.20;;;17.80;99.90;;;18.21;90.11;102148.28;5212741;28;20041;-80
2022/07/09 01:17:01;;;;;;;4.32;3.10;;;17.80;99.90;;;18.18;90.04;102149.06;5214982;28;20045;-82
2022/07/09 01:19:35;;;;;;;3.45;2.28;;;17.80;99.90;;;18.16;90.21;102150.78;5215413;28;20048;-80
2022/07/09 01:22:09;;;;;;;4.80;2.67;;;17.70;99.90;;;18.13;90.39;102150.72;5219432;28;20045;-81
2022/07/09 01:24:41;;;;;;;3.70;2.50;;;17.70;99.90;;;18.11;90.58;102138.34;5223921;28;20038;-80
2022/07/09 01:27:13;;;;;;;3.38;2.20;;;17.70;99.90;;;18.06;90.54;102140.88;5215410;28;20046;-81
2022/07/09 01:29:49;;;;;;;3.22;2.08;;;17.70;99.90;;;18.05;91.03;102141.69;5213807;28;20073;-81
2022/07/09 01:32:21;;;;;;;4.03;2.33;;;17.70;99.90;;;18.04;90.95;102141.66;5214587;28;20037;-80
2022/07/09 01:34:53;;;;;;;3.35;2.28;;;17.60;99.90;;;18.01;90.84;102139.84;5214704;28;20060;-81
2022/07/09 01:37:27;;;;;;;3.70;2.42;;;17.60;99.90;;;17.96;91.02;102136.19;5223462;28;20045;-81
2022/07/09 01:39:59;;;;;;;3.65;2.47;;;17.60;99.90;;;17.93;91.05;102135.22;5236088;28;20052;-80
2022/07/09 01:42:31;;;;;;;3.97;2.40;;;17.60;99.90;;;17.88;91.39;102137.75;5237121;28;20037;-81
2022/07/09 01:45:03;;;;;;;3.50;2.22;;;17.50;99.90;;;17.85;91.61;102137.66;5235515;28;20067;-80
2022/07/09 01:47:35;;;;;;;4.63;2.58;;;17.50;99.90;;;17.82;91.80;102129.69;5236517;28;20036;-81
2022/07/09 01:50:09;;;;;;;3.90;2.65;;;17.40;99.90;;;17.81;92.04;102138.47;5237864;28;20044;-80
2022/07/09 01:52:43;;;;;;;4.60;2.58;;;17.40;99.90;;;17.79;91.95;102126.94;5233062;28;20047;-80
2022/07/09 01:55:15;;;;;;;4.57;2.95;;;17.40;99.90;;;17.75;92.10;102131.28;5235191;28;20041;-80
2022/07/09 01:57:47;;;;;;;3.40;2.42;;;17.40;99.90;;;17.74;92.23;102139.16;5233001;28;20086;-81
2022/07/09 02:00:19;;;;;;;3.33;2.53;;;17.40;99.90;;;17.69;92.52;102131.06;5234339;28;20047;-82
2022/07/09 02:02:51;;;;;;;2.97;2.25;;;17.30;99.90;;;17.68;92.66;102128.41;5232664;28;20048;-80
2022/07/09 02:05:24;;;;;;;4.05;2.50;;;17.30;99.90;;;17.67;92.92;102124.88;5231953;28;20473;-80
2022/07/09 02:07:57;;;;;;;5.28;3.00;;;17.30;99.90;;;17.66;92.96;102122.16;5232105;28;20045;-81
2022/07/09 02:10:30;;;;;;;5.10;2.80;;;17.30;99.90;;;17.64;93.21;102128.28;5231788;28;20441;-81
2022/07/09 02:13:02;;;;;;;4.57;2.88;;;17.30;99.90;;;17.65;92.94;102118.63;5233229;28;20059;-80
2022/07/09 02:15:35;;;;;;;3.30;2.42;;;17.30;99.90;;;17.64;92.93;102117.75;5231504;28;20063;-81
2022/07/09 02:18:07;;;;;;;3.65;2.75;;;17.30;99.90;;;17.63;93.08;102113.34;5231943;28;20139;-80
2022/07/09 02:20:39;;;;;;;5.28;2.90;;;17.30;99.90;;;17.64;92.70;102111.59;5232830;28;20409;-80
2022/07/09 02:23:13;;;;;;;4.50;2.65;;;17.20;99.90;;;17.64;92.76;102112.47;5231922;28;20095;-80
2022/07/09 02:25:45;;;;;;;4.20;2.97;;;17.30;99.90;;;17.63;92.69;102102.78;5231675;28;20132;-80
2022/07/09 02:28:17;;;;;;;3.85;2.95;;;17.30;99.90;;;17.61;92.91;102115.03;5236864;28;20051;-80
2022/07/09 02:30:49;;;;;;;5.40;3.15;;;17.30;99.90;;;17.59;93.03;102108.81;5236702;28;20045;-81
2022/07/09 02:33:21;;;;;;;2.95;2.65;;;17.20;99.90;;;17.59;93.04;102108.81;5238280;28;20029;-82
2022/07/09 02:35:53;;;;;;;4.38;3.15;;;17.30;99.90;;;17.57;92.96;102115.81;5237089;28;20045;-82
2022/07/09 02:38:27;;;;;;;4.13;2.47;;;17.20;99.90;;;17.54;93.22;102107.81;5235277;28;20375;-81
2022/07/09 02:41:00;;;;;;;3.15;2.40;;;17.20;99.90;;;17.53;93.34;102103.38;5236749;28;20049;-81
2022/07/09 02:43:33;;;;;;;3.90;2.60;;;17.20;99.90;;;17.50;93.41;102098.03;5235105;28;20045;-83
2022/07/09 02:46:06;;;;;;;4.53;3.00;;;17.10;99.90;;;17.48;93.88;102101.50;5235410;28;20072;-82
2022/07/09 02:48:38;;;;;;;3.92;2.45;;;17.20;99.90;;;17.46;93.71;102096.16;5235162;28;20498;-82
2022/07/09 02:51:10;;;;;;;3.75;2.63;;;17.10;99.90;;;17.43;94.02;102105.75;5236972;28;20040;-80
2022/07/09 02:53:44;;;;;;;4.30;2.72;;;17.10;99.90;;;17.40;93.94;102101.25;5236223;28;20095;-80
2022/07/09 02:56:16;;;;;;;3.78;2.72;;;17.00;99.90;;;17.37;93.99;102101.19;5235117;28;20049;-84
2022/07/09 02:58:48;;;;;;;4.10;2.58;;;17.00;99.90;;;17.36;93.94;102104.69;5233464;28;20558;-80
2022/07/09 03:01:20;;;;;;;3.83;2.40;;;17.00;99.90;;;17.33;93.95;102105.47;5227788;28;20045;-81
2022/07/09 03:03:52;;;;;;;3.45;2.47;;;17.00;99.90;;;17.31;93.88;102096.63;5216819;28;20045;-82
2022/07/09 03:06:24;;;;;;;3.97;2.65;;;16.90;99.90;;;17.25;93.66;102096.47;5217825;28;20064;-82
2022/07/09 03:08:57;;;;;;;3.45;2.63;;;16.90;99.90;;;17.27;93.60;102093.88;5223567;28;20053;-82
2022/07/09 03:11:30;;;;;;;4.43;2.50;;;16.90;99.90;;;17.21;93.67;102099.84;5224895;28;20049;-80
2022/07/09 03:14:02;;;;;;;3.47;2.67;;;16.90;99.90;;;17.19;93.76;102105.94;5214205;28;20411;-82
2022/07/09 03:16:34;;;;;;;2.88;2.42;;;16.90;99.90;;;17.16;93.82;102090.06;5213018;28;20048;-80
2022/07/09 03:19:06;;;;;;;4.75;2.70;;;16.80;99.90;;;17.13;94.00;102095.22;5214578;28;20053;-81
2022/07/09 03:21:38;;;;;;;3.80;2.45;;;16.80;99.90;;;17.12;94.35;102090.81;5216399;28;20053;-81
2022/07/09 03:24:13;;;;;;;3.42;2.30;;;16.80;99.90;;;17.13;94.58;102095.22;5217082;28;20037;-80
2022/07/09 03:26:45;;;;;;;3.50;2.30;;;16.80;99.90;;;17.16;94.67;102087.41;5218975;28;20041;-81
2022/07/09 03:29:17;;;;;;;2.88;2.42;;;16.80;99.90;;;17.20;94.48;102089.28;5218431;28;20045;-80
2022/07/09 03:31:49;;;;;;;3.75;2.58;;;16.80;99.90;;;17.23;94.29;102092.91;5219136;28;20453;-81
2022/07/09 03:34:22;;;;;;;4.35;2.88;;;16.90;99.90;;;17.27;93.98;102096.50;5220047;28;20042;-80
2022/07/09 03:36:54;;;;;;;3.05;2.22;;;16.90;99.90;;;17.31;94.01;102096.63;5218833;28;20113;-80
2022/07/09 03:39:27;;;;;;;3.90;2.72;;;16.90;99.90;;;17.34;94.02;102091.47;5219765;28;20033;-80
2022/07/09 03:41:59;;;;;;;2.67;2.20;;;17.00;99.90;;;17.38;93.87;102097.69;5219908;28;20092;-81
2022/07/09 03:44:31;;;;;;;3.42;2.45;;;17.00;99.90;;;17.42;93.92;102094.31;5225410;28;20041;-81
2022/07/09 03:47:04;;;;;;;3.92;2.47;;;17.00;99.90;;;17.45;93.88;102094.38;5221804;28;20053;-79
2022/07/09 03:49:36;;;;;;;4.05;3.05;;;17.10;99.90;;;17.48;93.42;102093.59;5226554;28;20045;-82
2022/07/09 03:52:08;;;;;;;3.75;2.80;;;17.10;99.90;;;17.50;93.07;102102.41;5221996;28;20045;-80
2022/07/09 03:54:42;;;;;;;3.83;2.70;;;17.10;99.90;;;17.51;92.93;102098.94;5216170;28;20034;-79
2022/07/09 03:57:14;;;;;;;3.92;2.65;;;17.10;99.90;;;17.54;92.98;102099.00;5215074;28;20041;-81
2022/07/09 03:59:46;;;;;;;3.88;2.67;;;17.20;99.90;;;17.58;92.90;102088.59;5215375;28;20056;-79
2022/07/09 04:02:18;;;;;;;5.82;3.60;;;17.20;99.90;;;17.58;92.71;102085.06;5217021;28;20372;-80
2022/07/09 04:04:51;;;;;;;4.28;2.75;;;17.20;99.90;;;17.59;92.50;102079.81;5215390;28;20048;-80
2022/07/09 04:07:23;;;;;;;4.63;3.13;;;17.20;99.90;;;17.62;92.40;102085.19;5217098;28;20063;-81
2022/07/09 04:09:56;;;;;;;4.07;2.72;;;17.30;99.90;;;17.66;92.16;102087.88;5216399;28;20050;-81
2022/07/09 04:12:28;;;;;;;3.42;2.70;;;17.40;99.90;;;17.67;92.11;102085.31;5215522;28;20072;-82
2022/07/09 04:15:00;;;;;;;3.40;2.63;;;17.30;99.90;;;17.72;91.99;102085.44;5216784;28;20038;-81
2022/07/09 04:17:34;;;;;;;3.35;2.70;;;17.30;99.90;;;17.74;92.20;102082.00;5216631;28;20037;-79
2022/07/09 04:20:07;;;;;;;4.72;3.03;;;17.40;99.90;;;17.78;92.16;102083.84;5214040;28;20545;-80
2022/07/09 04:22:40;;;;;;;3.78;2.90;;;17.40;99.90;;;17.82;91.89;102090.13;5215163;28;20041;-82
2022/07/09 04:25:13;;;;;;;3.95;2.53;;;17.50;99.90;;;17.84;91.62;102093.69;5214755;28;20033;-80
2022/07/09 04:27:45;;;;;;;3.05;2.53;;;17.50;99.90;;;17.86;91.66;102091.97;5214021;28;20502;-80
2022/07/09 04:30:17;;;;;;;4.20;2.72;;;17.50;99.90;;;17.92;91.70;102086.84;5215040;28;20037;-79
2022/07/09 04:32:49;;;;;;;4.78;2.75;;;17.60;99.90;;;17.97;91.92;102095.78;5214848;28;20487;-80
2022/07/09 04:35:21;;;;;;;3.33;2.42;;;17.60;99.90;;;18.00;91.85;102101.13;5213510;28;20430;-80
2022/07/09 04:37:53;;;;;;;4.88;2.67;;;17.60;99.90;;;18.05;91.97;102098.59;5214299;28;20049;-82
2022/07/09 04:40:27;;;;;;;4.45;3.13;;;17.70;99.90;;;18.07;92.07;102108.34;5214783;28;20041;-79
2022/07/09 04:42:59;;;;;;;4.32;2.50;;;17.70;99.90;;;18.07;92.12;102103.06;5213015;28;20037;-80
2022/07/09 04:45:32;;;;;;;4.05;2.83;;;17.70;99.90;;;18.11;92.28;102099.63;5212082;28;20053;-81
2022/07/09 04:48:05;;;;;;;4.15;2.42;;;17.70;99.90;;;18.16;92.48;102103.28;5213564;28;20045;-80
2022/07/09 04:50:37;;;;;;;3.70;2.70;;;17.80;99.90;;;18.24;92.37;102110.50;5212846;28;20403;-80
2022/07/09 04:53:09;;;;;;;6.10;3.22;;;17.80;99.90;;;18.32;92.03;102108.94;5211841;28;20048;-80
2022/07/09 04:55:43;;;;;;;5.40;3.15;;;17.90;99.90;;;18.41;91.70;102103.88;5212317;28;20049;-81
2022/07/09 04:58:15;;;;;;;4.57;2.67;;;18.00;99.90;;;18.48;91.06;102111.09;5214440;28;20033;-81
2022/07/09 05:00:47;;;;;;;4.32;2.92;;;18.10;99.90;;;18.54;90.73;102113.88;5213664;28;20040;-80
2022/07/09 05:03:19;;;;;;;5.15;2.83;;;18.10;99.90;;;18.58;90.25;102113.09;5215040;28;20048;-81
2022/07/09 05:05:51;;;;;;;3.35;2.50;;;18.20;99.90;;;18.64;90.05;102113.19;5215472;28;20041;-81
2022/07/09 05:08:23;;;;;;;4.82;2.85;;;18.30;99.90;;;18.67;89.83;102113.31;5214377;28;20042;-81
2022/07/09 05:10:56;;;;;;;4.38;2.70;;;18.30;99.90;;;18.69;89.32;102113.34;5215143;28;20046;-82
2022/07/09 05:13:28;;;;;;;5.25;3.10;;;18.30;99.90;;;18.69;88.86;102118.63;5213042;28;20068;-80
2022/07/09 05:16:00;;;;;;;4.40;3.05;;;18.30;99.90;;;18.66;88.46;102114.19;5213220;28;20048;-80
2022/07/09 05:18:33;;;;;;;4.53;3.25;;;18.30;99.90;;;18.65;88.42;102115.03;5212980;28;20128;-82
2022/07/09 05:21:06;;;;;;;4.53;3.05;;;18.30;99.90;;;18.67;88.34;102113.31;5215044;28;20056;-81
2022/07/09 05:23:38;;;;;;;5.20;2.88;;;18.30;99.90;;;18.69;88.10;102105.44;5214733;28;20053;-80
2022/07/09 05:26:12;;;;;;;4.70;2.55;;;18.30;99.90;;;18.74;88.60;102102.91;5214037;28;20071;-82
2022/07/09 05:28:44;;;;;;;4.88;2.88;;;18.40;99.90;;;18.79;88.70;102106.53;5214836;28;20053;-82
2022/07/09 05:31:16;;;;;;;3.45;2.58;;;18.40;99.90;;;18.83;88.93;102103.97;5217706;28;20034;-80
2022/07/09 05:33:48;;;;;;;5.03;2.60;;;18.40;99.90;;;18.90;88.92;102105.88;5228608;28;20052;-80
2022/07/09 05:36:20;;;;;;;4.72;2.60;;;18.50;99.90;;;18.99;89.08;102105.22;5214696;28;20049;-81
2022/07/09 05:38:52;;;;;;;5.72;3.03;;;18.60;99.90;;;19.14;89.28;102097.59;5211136;28;20041;-80
2022/07/09 05:41:26;;;;;;;4.65;3.45;;;18.70;99.90;;;19.53;90.56;102105.41;5212485;28;20041;-80
2022/07/09 05:43:58;;;;;;;6.95;3.67;;;18.90;99.90;;;20.10;86.24;102108.19;5209302;28;20485;-81
2022/07/09 05:46:30;;;;;;;6.53;3.42;;;19.40;99.90;;;20.63;82.58;102111.69;5211250;28;20045;-81
2022/07/09 05:49:02;;;;;;;4.72;2.83;;;19.80;99.90;;;21.22;79.01;102114.22;5210437;28;20042;-81
2022/07/09 05:51:34;;;;;;;5.53;3.28;;;20.30;99.90;;;21.65;75.80;102110.31;5209146;28;20046;-80
2022/07/09 05:54:06;;;;;;;5.60;3.30;;;20.80;99.90;;;22.12;73.49;102116.97;5208362;28;20044;-80
2022/07/09 05:56:41;;;;;;;4.82;2.97;;;21.20;99.90;;;22.57;71.08;102120.84;5207542;28;20406;-81
2022/07/09 05:59:13;;;;;;;8.88;3.53;;;21.60;99.90;;;23.04;68.91;102122.88;5209866;28;20061;-83
2022/07/09 06:01:45;;;;;;;7.05;3.22;;;22.10;99.50;;;23.49;67.46;102114.19;5211167;28;20107;-82
2022/07/09 06:04:17;;;;;;;4.80;3.03;;;22.50;99.00;;;23.94;65.81;102121.38;5212988;28;20499;-82
2022/07/09 06:06:49;;;;;;;5.43;3.60;;;22.90;97.80;;;24.18;64.41;102119.56;5213643;28;20064;-81
2022/07/09 06:09:21;;;;;;;7.55;3.58;;;23.20;96.90;;;24.17;63.87;102110.69;5214469;28;20049;-83
2022/07/09 06:11:55;;;;;;;4.65;2.92;;;23.30;96.40;;;23.96;64.58;102113.38;5213539;28;20477;-82
2022/07/09 06:14:27;;;;;;;5.60;3.60;;;23.20;96.20;;;23.63;65.17;102108.91;5213402;28;20132;-83
2022/07/09 06:17:05;;;;;;;4.72;3.08;;;23.00;96.30;;;23.21;66.85;102105.22;5214445;28;20053;-82
2022/07/09 06:19:38;;;;;;;5.95;3.40;;;22.70;96.70;;;22.93;68.22;102094.47;5215777;28;20135;-83
2022/07/09 06:22:10;;;;;;;7.95;3.75;;;22.40;97.30;;;22.98;69.27;102097.16;5234706;28;20051;-84
2022/07/09 06:24:42;;;;;;;7.07;4.10;;;22.30;98.00;;;23.35;68.14;102103.50;5217305;28;20036;-81
2022/07/09 06:27:15;;;;;;;9.32;4.43;;;22.60;97.80;;;23.75;66.88;102109.81;5206984;28;20049;-82
2022/07/09 06:29:47;;;;;;;9.98;3.95;;;22.80;97.30;;;23.95;66.20;102112.50;5209980;28;20049;-83
2022/07/09 06:32:19;;;;;;;7.13;3.50;;;23.10;97.10;;;24.08;65.59;102114.28;5202085;28;20459;-81
2022/07/09 06:34:51;;;;;;;6.75;3.45;;;23.20;96.80;;;23.92;65.19;102120.47;5207899;28;20041;-82
2022/07/09 06:37:23;;;;;;;5.70;3.55;;;23.20;96.30;;;23.63;65.99;102115.13;5212300;28;20044;-83
2022/07/09 06:39:57;;;;;;;6.10;3.50;;;23.00;96.30;;;23.39;67.07;102110.59;5209587;28;20048;-82
2022/07/09 06:42:31;;;;;;;7.15;3.75;;;22.80;96.60;;;23.40;68.12;102115.03;5223678;28;20041;-83
2022/07/09 06:45:09;;;;;;;10.35;4.10;;;22.70;97.30;;;23.73;67.31;102116.00;5385529;22;20056;-70
2022/07/09 06:47:41;;;;;;;8.77;4.00;;;22.90;97.20;;;23.92;66.29;102116.91;5229253;28;20171;-70
2022/07/09 06:50:13;;;;;;;6.90;3.85;;;23.00;96.80;;;23.95;65.17;102117.81;5229178;28;20055;-69
2022/07/09 06:52:46;;;;;;;6.90;3.60;;;23.10;96.30;;;24.06;66.33;102108.06;5213290;28;20408;-70
2022/07/09 06:55:18;;;;;;;6.82;3.70;;;23.20;96.60;;;24.55;64.65;102115.13;5208437;28;20052;-70
2022/07/09 06:57:52;;;;;;;8.10;3.85;;;23.50;96.20;;;24.99;64.10;102112.31;5190656;28;20045;-69
2022/07/09 07:00:24;;;;;;;6.38;3.35;;;23.90;96.00;;;25.33;63.23;102107.75;5208376;28;20047;-71
2022/07/09 07:02:59;;;;;;;5.93;2.63;;;24.30;95.50;;;25.63;61.47;102104.00;5190560;28;20056;-70
2022/07/09 07:05:31;;;;;;;6.47;3.00;;;24.60;94.50;;;25.86;60.03;102102.97;5208395;28;20033;-71
2022/07/09 07:08:04;;;;;;;6.30;3.08;;;24.80;93.80;;;26.18;59.12;102106.25;5190429;28;20051;-70
2022/07/09 07:10:36;;;;;;;5.80;3.00;;;25.10;93.10;;;26.46;58.18;102108.69;5208085;28;20041;-70
2022/07/09 07:13:10;;;;;;;6.07;3.03;;;25.30;92.30;;;26.70;57.63;102110.22;5207791;28;20046;-71
2022/07/09 07:15:44;;;;;;;6.70;2.67;;;25.60;91.80;;;26.75;57.20;102111.06;5208046;28;20045;-70
2022/07/09 07:18:16;;;;;;;4.20;2.85;;;25.70;91.40;;;26.43;57.09;102111.41;5207521;28;20049;-70
2022/07/09 07:20:48;;;;;;;7.72;3.30;;;25.60;90.70;;;26.24;58.01;102122.22;5207932;28;20091;-71
2022/07/09 07:23:21;;;;;;;5.15;2.75;;;25.40;90.90;;;26.35;58.23;102121.25;5207846;28;20120;-70
2022/07/09 07:25:53;;;;;;;4.57;3.00;;;25.40;91.40;;;26.46;56.95;102122.94;5207733;28;20049;-72
2022/07/09 07:28:26;;;;;;;5.28;2.42;;;25.50;90.60;;;26.56;57.19;102118.38;5207860;28;20046;-70
2022/07/09 07:30:59;;;;;;;5.13;2.33;;;25.60;90.50;;;26.55;56.80;102113.06;5207513;28;20041;-70
2022/07/09 07:33:31;;;;;;;5.03;2.28;;;25.60;90.10;;;26.36;56.03;102115.88;5189949;28;20081;-72
2022/07/09 07:36:03;;;;;;;4.75;2.20;;;25.50;88.90;;;25.94;56.89;102111.78;5207526;28;20490;-71
2022/07/09 07:38:36;;;;;;;3.72;2.08;;;25.20;88.80;;;25.75;57.22;102110.16;5207257;28;20056;-71
2022/07/09 07:41:08;;;;;;;6.82;2.53;;;25.00;89.10;;;25.89;57.60;102102.97;5207292;28;20045;-70
2022/07/09 07:43:42;;;;;;;6.90;3.05;;;25.00;89.80;;;26.10;55.86;102097.44;5207453;28;20080;-69
2022/07/09 07:46:15;;;;;;;6.28;2.53;;;25.10;88.30;;;26.38;55.16;102102.50;5222630;28;20119;-69
2022/07/09 07:48:47;;;;;;;5.75;2.35;;;25.30;87.60;;;26.67;54.35;102111.16;5222819;28;20513;-67
2022/07/09 07:51:19;;;;;;;7.85;2.70;;;25.60;86.80;;;27.03;53.65;102106.25;5189311;28;20073;-63
2022/07/09 07:53:51;;;;;;;4.03;1.90;;;25.80;86.10;;;27.18;52.63;102108.75;5207033;28;20045;-62
2022/07/09 07:56:24;;;;;;;4.07;1.83;;;26.10;84.30;;;27.21;51.72;102100.69;5206919;28;20038;-63
2022/07/09 07:58:57;;;;;;;2.58;1.50;;;26.10;82.60;;;27.01;51.72;102100.91;5207274;28;20058;-63
2022/07/09 08:01:30;;;;;;;3.28;1.60;;;26.00;81.60;;;27.02;52.05;102097.31;5207216;28;20136;-64
2022/07/09 08:04:02;;;;;;;4.78;1.60;;;26.00;82.10;;;26.85;52.46;102098.44;5202895;28;20576;-63
2022/07/09 08:06:35;;;;;;;3.15;1.75;;;25.80;82.10;;;26.84;52.55;102097.56;5227595;28;20040;-63
2022/07/09 08:09:07;;;;;;;3.50;1.40;;;25.70;82.10;;;26.88;52.01;102093.94;5227526;28;20555;-63
2022/07/09 08:11:40;;;;;;;3.03;1.48;;;25.70;81.60;;;26.72;52.44;102109.28;5231356;28;20053;-63
2022/07/09 08:14:13;;;;;;;2.72;1.40;;;25.60;81.60;;;26.87;52.92;102099.31;5206726;28;20049;-64
2022/07/09 08:16:45;;;;;;;2.17;1.20;;;25.60;82.60;;;26.95;52.29;102094.75;5218484;28;20103;-64
2022/07/09 08:19:17;;;;;;;2.22;1.33;;;25.60;82.20;;;27.08;51.95;102101.75;5227268;28;20047;-69
2022/07/09 08:21:50;;;;;;;2.85;1.27;;;25.70;82.00;;;27.33;50.98;102096.06;5227069;28;20041;-68
2022/07/09 08:24:22;;;;;;;3.15;1.25;;;25.70;81.10;;;27.53;50.80;102093.97;5212949;28;20055;-73
2022/07/09 08:26:54;;;;;;;2.45;1.23;;;25.80;81.30;;;27.23;51.19;102096.19;5229595;28;20084;-66
2022/07/09 08:29:28;;;;;;;2.08;1.30;;;25.70;81.10;;;27.21;51.57;102092.66;5223911;28;20049;-54
2022/07/09 08:32:00;;;;;;;3.33;1.58;;;25.60;81.20;;;27.09;51.73;102091.94;5220684;28;20102;-55
2022/07/09 08:34:33;;;;;;;3.33;1.42;;;25.60;81.40;;;27.77;51.40;102092.72;5208402;28;20049;-54
2022/07/09 08:37:05;;;;;;;2.85;1.40;;;25.80;82.30;;;27.87;49.30;102094.34;5206622;28;20053;-57
2022/07/09 08:39:38;;;;;;;3.47;1.50;;;25.90;79.90;;;27.18;50.36;102084.66;5164437;28;20070;-56
2022/07/09 08:42:12;;;;;;;3.80;1.70;;;25.60;79.50;;;28.07;50.12;102086.84;5210983;28;20051;-55
2022/07/09 08:44:48;;;;;;;2.40;1.55;;;25.80;81.40;;;29.95;46.22;102082.00;5218619;28;20075;-69
2022/07/09 08:47:21;;;;;;;2.33;1.50;;;26.70;79.70;;;31.76;42.97;102091.09;5226887;28;20052;-70
2022/07/09 08:49:58;;;;;;;2.38;1.48;;;27.90;76.80;;;32.71;40.85;102087.78;5227036;28;20041;-69
2022/07/09 08:52:31;;;;;;;2.95;1.60;;;28.80;73.40;;;32.11;41.00;102088.09;5226763;28;20412;-70
2022/07/09 08:55:04;;;;;;;2.95;1.63;;;29.00;71.10;;;31.06;42.81;102081.59;5225167;28;20111;-69
2022/07/09 08:57:37;;;;;;;3.88;2.00;;;28.70;70.80;;;30.16;44.22;102083.28;5225304;28;20041;-68
2022/07/09 09:00:11;;;;;;;5.68;2.20;;;28.20;71.30;;;29.34;45.17;102081.66;5226010;28;20063;-68
2022/07/09 09:02:43;;;;;;;6.82;2.83;;;27.70;71.60;;;29.50;45.38;102075.94;5225961;28;20094;-69
2022/07/09 09:05:17;;;;;;;5.30;2.50;;;27.60;72.20;;;29.95;44.57;102072.13;5208011;28;20504;-69
2022/07/09 09:07:50;;;;;;;3.90;2.33;;;27.70;71.70;;;31.15;42.80;102083.13;5225821;28;20052;-69
2022/07/09 09:10:23;;;;;;;5.25;2.60;;;28.20;71.40;;;32.11;40.97;102081.84;5226540;28;20090;-69
2022/07/09 09:13:00;;;;;;;6.70;3.10;;;29.00;69.70;;;31.94;40.90;102074.31;5226346;28;20116;-69
2022/07/09 09:15:33;;;;;;;4.38;2.42;;;29.20;68.10;;;31.49;41.91;102072.19;5226761;28;20095;-69
2022/07/09 09:18:06;;;;;;;5.10;2.90;;;29.10;68.10;;;32.08;41.62;102072.03;5226410;28;20080;-69
2022/07/09 09:20:39;;;;;;;3.60;2.13;;;29.30;68.60;;;32.08;40.60;102069.34;5226443;28;20118;-69
2022/07/09 09:23:17;;;;;;;2.92;1.88;;;29.50;67.20;;;31.25;41.03;102062.22;5225503;28;20045;-69
2022/07/09 09:25:49;;;;;;;3.08;1.83;;;29.10;66.90;;;30.80;41.75;102066.22;5241848;28;20589;-69
2022/07/09 09:28:22;;;;;;;3.50;1.80;;;28.80;66.70;;;30.26;43.05;102057.91;5226485;28;20461;-69
2022/07/09 09:30:55;;;;;;;2.22;1.45;;;28.60;67.30;;;29.62;43.54;102064.91;5226142;28;20139;-69
2022/07/09 09:33:27;;;;;;;2.25;1.45;;;28.10;67.50;;;29.01;45.03;102058.22;5226394;28;20040;-70
2022/07/09 09:36:00;;;;;;;1.95;1.40;;;27.70;68.40;;;29.02;45.01;102057.34;5228374;28;20133;-69
2022/07/09 09:38:32;;;;;;;1.83;1.10;;;27.60;69.00;;;29.40;44.28;102043.00;5230459;28;20170;-69
2022/07/09 09:41:04;;;;;;;2.10;1.50;;;27.70;68.60;;;29.55;43.93;102041.81;5230361;28;20045;-69
2022/07/09 09:43:38;;;;;;;1.75;1.48;;;28.00;68.10;;;29.44;44.49;102033.97;5245617;28;20053;-68
2022/07/09 09:46:11;;;;;;;1.98;1.50;;;28.00;68.30;;;29.29;44.89;102024.50;5230146;28;20500;-69
2022/07/09 09:48:44;;;;;;;2.70;1.30;;;28.00;68.30;;;29.17;45.03;102025.66;5230172;28;20041;-68
2022/07/09 09:51:20;;;;;;;1.83;1.30;;;28.00;68.10;;;29.29;45.84;102027.19;5229729;28;20106;-69
2022/07/09 09:53:55;;;;;;;1.55;1.00;;;28.10;69.00;;;29.40;45.26;102027.78;5228474;28;20044;-69
2022/07/09 09:56:29;;;;;;;3.50;1.35;;;28.20;68.50;;;29.53;45.51;102022.16;5228791;28;20076;-70
2022/07/09 09:59:01;;;;;;;;;;;28.30;68.60;;;29.58;44.90;102017.53;5230443;28;20045;-70
2022/07/09 10:01:35;;;;;;;2.53;1.30;;;28.40;67.80;;;29.76;44.27;102014.41;5219538;28;19921;-71
2022/07/09 10:04:07;;;;;;;1.48;1.20;;;28.50;67.30;;;29.85;44.08;102008.75;5209225;28;20120;-71
2022/07/09 10:06:40;;;;;;;2.15;1.20;;;28.60;66.80;;;29.68;44.43;102013.72;5208969;28;20041;-70
2022/07/09 10:09:14;;;;;;;2.63;1.45;;;28.50;66.70;;;29.32;44.18;102012.78;5209056;28;20120;-72
2022/07/09 10:11:48;;;;;;;1.20;1.10;;;28.30;66.50;;;28.93;44.73;102004.72;5208788;28;20044;-71
2022/07/09 10:14:32;;;;;;;1.88;1.20;;;28.00;66.30;;;28.76;45.54;102002.41;5224665;28;20115;-71
2022/07/09 10:17:15;;;;;;;2.58;1.50;;;27.80;67.60;;;28.66;45.70;102000.81;5229445;28;20140;-72
2022/07/09 10:19:55;;;;;;;2.08;1.40;;;27.70;67.70;;;28.58;46.64;102006.34;5229704;28;20041;-72
2022/07/09 10:22:36;;;;;;;5.97;2.20;;;27.50;68.70;;;28.47;46.87;102005.69;5229719;28;20132;-72
2022/07/09 10:25:10;;;;;;;5.05;2.00;;;27.50;68.70;;;28.27;46.95;102000.69;5229578;28;20044;-72
2022/07/09 10:27:43;;;;;;;4.60;1.83;;;27.30;68.90;;;28.24;47.13;101995.41;5229131;28;20044;-71
2022/07/09 10:30:27;;;;;;;3.10;1.50;;;27.30;68.90;;;28.38;46.97;101993.38;5229473;28;20041;-71
2022/07/09 10:33:11;;;;;;;2.92;1.40;;;27.30;69.40;;;28.54;46.03;101987.66;5229539;28;20047;-71
2022/07/09 10:35:46;;;;;;;3.00;1.40;;;27.40;68.40;;;28.49;45.71;101986.88;5229285;28;20041;-71